Terminal Aerodrome Forecast
Issued by NWS Portland, OR

Home | Current Version | Previous Version | Text Only | Print | Product List | Glossary On
Versions: 1 2 3 4 5 6 7 8 9 10 11 12 13 14 15 16
000
FTUS46 KPQR 291721
TAFTTD
TAF
KTTD 291721Z 2918/3018 27005KT P6SM SCT150
     FM300700 00000KT P6SM SCT050
     FM301300 17003KT P6SM BKN015=

USA.gov is the U.S. government's official web portal to all federal, state and local government web resources and services.